Time;durP1;ratioP1;P1;durP2;ratioP2;P2;SDS_P1;SDS_P2;PMS_P1;PMS_P2;Temp;Humidity;BMP_temperature;BMP_pressure;BME280_temperature;BME280_humidity;BME280_pressure;Samples;Min_cycle;Max_cycle;Signal;HPM_P1;HPM_P2
2022/04/18 00:02:10;;;;;;;3.28;0.70;;;20.70;99.90;;;;;;5026685;28;20033;-73
2022/04/18 00:04:37;;;;;;;2.22;0.68;;;20.80;99.90;;;;;;5047193;28;20049;-73
2022/04/18 00:07:05;;;;;;;4.78;0.95;;;20.90;99.90;;;;;;5038836;28;20097;-73
2022/04/18 00:09:35;;;;;;;3.28;1.10;;;21.00;99.90;;;;;;5042565;28;20023;-73
2022/04/18 00:12:02;;;;;;;1.60;0.55;;;21.30;99.90;;;;;;5043912;28;20037;-72
2022/04/18 00:14:30;;;;;;;3.38;0.70;;;21.50;99.90;;;;;;5047818;28;20017;-73
2022/04/18 00:16:58;;;;;;;2.65;0.73;;;21.30;99.90;;;;;;5041129;28;20473;-73
2022/04/18 00:19:25;;;;;;;4.50;0.82;;;21.20;99.90;;;;;;5044506;28;20028;-73
2022/04/18 00:21:53;;;;;;;3.80;0.75;;;21.30;99.90;;;;;;5043554;28;20067;-72
2022/04/18 00:24:21;;;;;;;2.80;0.75;;;21.60;99.90;;;;;;5044386;28;20477;-73
2022/04/18 00:26:48;;;;;;;2.78;0.80;;;21.50;99.90;;;;;;5047777;28;20033;-73
2022/04/18 00:29:16;;;;;;;1.40;0.70;;;21.60;99.90;;;;;;5047769;28;20104;-73
2022/04/18 00:31:44;;;;;;;3.38;0.70;;;21.90;99.90;;;;;;5024930;28;20154;-73
2022/04/18 00:34:11;;;;;;;2.38;1.10;;;22.20;99.90;;;;;;5046861;28;20017;-73
2022/04/18 00:36:38;;;;;;;2.15;0.43;;;22.00;99.90;;;;;;5047219;28;20029;-72
2022/04/18 00:39:06;;;;;;;2.53;0.68;;;22.00;99.90;;;;;;5040546;28;20084;-72
2022/04/18 00:41:34;;;;;;;2.05;0.50;;;21.90;99.90;;;;;;5046036;28;20511;-73
2022/04/18 00:44:02;;;;;;;1.80;0.60;;;22.50;99.90;;;;;;5047973;28;20075;-72
2022/04/18 00:46:29;;;;;;;1.10;0.50;;;22.90;99.90;;;;;;5044559;28;20386;-72
2022/04/18 00:48:57;;;;;;;4.00;0.70;;;23.10;99.90;;;;;;5048500;28;20039;-72
2022/04/18 00:51:29;;;;;;;3.33;0.80;;;23.10;99.90;;;;;;5043561;28;20547;-73
2022/04/18 00:53:58;;;;;;;2.13;0.40;;;23.20;99.90;;;;;;5046585;28;20040;-73
2022/04/18 00:56:26;;;;;;;2.20;0.45;;;23.60;99.90;;;;;;5042140;28;20021;-73
2022/04/18 00:58:55;;;;;;;2.17;0.52;;;23.50;99.90;;;;;;5045721;28;20036;-73
2022/04/18 01:01:23;;;;;;;3.53;0.63;;;23.60;99.90;;;;;;5047215;28;20400;-73
2022/04/18 01:03:51;;;;;;;0.57;0.45;;;23.90;99.90;;;;;;5047116;28;20432;-73
2022/04/18 01:06:19;;;;;;;1.63;0.65;;;24.40;99.90;;;;;;5045582;28;20053;-73
2022/04/18 01:08:48;;;;;;;1.45;0.60;;;23.50;99.90;;;;;;5044061;28;20029;-72
2022/04/18 01:11:16;;;;;;;1.95;0.82;;;23.60;99.90;;;;;;5043565;28;20422;-72
2022/04/18 01:13:47;;;;;;;1.95;0.50;;;23.80;99.90;;;;;;5048462;28;20036;-72
2022/04/18 01:16:16;;;;;;;3.75;0.65;;;23.80;99.90;;;;;;5051939;28;20103;-73
2022/04/18 01:18:45;;;;;;;1.88;0.70;;;24.20;99.90;;;;;;5040761;28;20028;-73
2022/04/18 01:21:16;;;;;;;2.03;0.70;;;24.10;99.90;;;;;;5055656;28;20112;-73
2022/04/18 01:23:43;;;;;;;3.03;0.68;;;24.30;99.90;;;;;;5053669;28;20032;-73
2022/04/18 01:28:58;;;;;;;1.77;0.70;;;24.80;99.90;;;;;;5046758;28;20211;-73
2022/04/18 01:31:31;;;;;;;1.42;0.75;;;24.50;99.90;;;;;;5050589;28;20465;-72
2022/04/18 01:33:58;;;;;;;1.27;0.63;;;24.60;99.90;;;;;;5052687;28;20025;-72
2022/04/18 01:36:27;;;;;;;3.20;0.30;;;25.20;99.90;;;;;;5044266;28;20021;-73
2022/04/18 01:38:55;;;;;;;2.70;0.95;;;25.60;99.90;;;;;;5045586;28;20020;-73
2022/04/18 01:41:22;;;;;;;2.20;0.75;;;25.90;99.90;;;;;;5050209;28;20033;-72
2022/04/18 01:43:50;;;;;;;0.98;0.40;;;26.10;99.90;;;;;;5047779;28;20044;-73
2022/04/18 01:46:18;;;;;;;0.70;0.40;;;26.40;99.90;;;;;;5042513;28;20021;-72
2022/04/18 01:48:47;;;;;;;2.40;0.40;;;25.90;99.90;;;;;;5043758;28;20079;-72
2022/04/18 01:51:14;;;;;;;1.95;0.55;;;25.90;99.90;;;;;;5048821;28;20033;-73
2022/04/18 01:53:42;;;;;;;2.05;0.35;;;26.20;99.90;;;;;;5040508;28;20027;-73
2022/04/18 01:56:09;;;;;;;1.45;0.45;;;26.20;99.90;;;;;;5052000;28;20037;-72
2022/04/18 01:58:36;;;;;;;1.45;0.40;;;26.80;99.90;;;;;;5044024;28;20083;-72
2022/04/18 02:01:04;;;;;;;0.95;0.47;;;27.20;99.90;;;;;;5051022;28;20033;-72
2022/04/18 02:03:31;;;;;;;3.00;0.65;;;27.20;99.90;;;;;;5044178;28;20029;-72
2022/04/18 02:05:58;;;;;;;2.47;0.63;;;27.00;99.90;;;;;;5030209;28;20029;-72
2022/04/18 02:08:26;;;;;;;4.43;0.38;;;27.30;99.90;;;;;;5049468;28;20021;-73
2022/04/18 02:10:54;;;;;;;1.70;0.40;;;27.70;99.90;;;;;;5034229;28;20028;-73
2022/04/18 02:13:21;;;;;;;1.48;0.38;;;27.40;99.90;;;;;;5050389;28;20013;-72
2022/04/18 02:15:48;;;;;;;2.05;0.30;;;27.10;99.90;;;;;;5052367;28;20032;-72
2022/04/18 02:18:15;;;;;;;1.20;0.50;;;26.40;99.90;;;;;;5027796;28;20070;-72
2022/04/18 02:20:43;;;;;;;3.45;0.45;;;26.90;99.90;;;;;;5050471;28;20025;-73
2022/04/18 02:23:11;;;;;;;4.22;0.30;;;27.10;99.90;;;;;;5047289;28;20145;-72
2022/04/18 02:25:38;;;;;;;4.07;0.45;;;26.60;99.90;;;;;;5041609;28;20032;-72
2022/04/18 02:28:05;;;;;;;2.58;0.40;;;26.50;99.90;;;;;;5040289;28;20021;-72
2022/04/18 02:30:33;;;;;;;2.15;0.40;;;26.20;99.90;;;;;;5043782;28;20108;-72
2022/04/18 02:33:01;;;;;;;2.10;0.68;;;25.90;99.90;;;;;;5041134;28;20570;-72
2022/04/18 02:35:28;;;;;;;3.70;0.40;;;26.20;99.90;;;;;;5023249;28;20030;-72
2022/04/18 02:37:56;;;;;;;1.95;0.32;;;26.80;99.90;;;;;;5044601;28;20104;-72
2022/04/18 02:40:23;;;;;;;2.40;0.65;;;27.20;99.90;;;;;;5050952;28;20496;-72
2022/04/18 02:42:50;;;;;;;1.70;0.45;;;27.10;99.90;;;;;;5049821;28;20482;-73
2022/04/18 02:45:19;;;;;;;1.98;0.35;;;26.80;99.90;;;;;;5058530;22;20041;-72
2022/04/18 02:47:47;;;;;;;2.50;0.57;;;27.00;99.90;;;;;;5053397;28;20028;-73
2022/04/18 02:50:15;;;;;;;0.70;0.40;;;27.10;99.90;;;;;;5046518;22;20438;-73
2022/04/18 02:52:42;;;;;;;2.83;0.43;;;26.50;99.90;;;;;;5069489;22;20171;-73
2022/04/18 02:55:11;;;;;;;1.58;0.40;;;26.10;99.90;;;;;;5050445;28;20108;-72
2022/04/18 02:57:39;;;;;;;2.67;0.40;;;25.70;99.90;;;;;;5051863;28;20485;-73
2022/04/18 03:00:08;;;;;;;2.58;0.75;;;25.60;99.90;;;;;;5051010;28;20051;-72
2022/04/18 03:02:36;;;;;;;4.03;0.50;;;25.90;99.90;;;;;;5041858;28;20033;-72
2022/04/18 03:05:06;;;;;;;2.42;0.40;;;26.60;99.90;;;;;;5036801;28;20029;-73
2022/04/18 03:07:34;;;;;;;1.45;0.43;;;27.20;99.90;;;;;;5048833;28;20025;-73
2022/04/18 03:10:01;;;;;;;1.65;0.30;;;27.10;99.90;;;;;;5024185;28;20112;-73
2022/04/18 03:12:29;;;;;;;2.35;0.47;;;27.00;99.90;;;;;;5031284;28;20124;-72
2022/04/18 03:14:56;;;;;;;0.63;0.40;;;26.60;99.90;;;;;;5049734;28;20033;-72
2022/04/18 03:17:23;;;;;;;1.35;0.50;;;26.40;99.90;;;;;;5045898;28;20045;-73
2022/04/18 03:19:52;;;;;;;2.95;0.47;;;26.20;99.90;;;;;;5037739;22;20052;-72
2022/04/18 03:22:20;;;;;;;2.13;0.35;;;26.20;99.90;;;;;;5029935;28;20058;-72
2022/04/18 03:24:48;;;;;;;1.80;0.60;;;26.60;99.90;;;;;;5030028;28;20040;-73
2022/04/18 03:27:16;;;;;;;1.63;0.68;;;26.30;99.90;;;;;;5028077;28;20075;-72
2022/04/18 03:29:43;;;;;;;3.17;0.70;;;26.20;99.90;;;;;;5064142;22;20065;-71
2022/04/18 03:32:10;;;;;;;3.80;0.60;;;26.30;99.90;;;;;;5043323;28;20017;-71
2022/04/18 03:34:37;;;;;;;5.28;0.93;;;26.70;99.90;;;;;;5040213;28;20029;-72
2022/04/18 03:39:50;;;;;;;3.15;0.60;;;26.30;99.90;;;;;;5049804;28;20036;-71
2022/04/18 03:42:19;;;;;;;3.80;0.60;;;26.20;99.90;;;;;;5051033;28;20024;-71
2022/04/18 03:44:47;;;;;;;3.80;1.00;;;26.10;99.90;;;;;;5047244;28;20021;-72
2022/04/18 03:47:16;;;;;;;3.30;0.60;;;26.10;99.90;;;;;;5032669;28;20029;-71
2022/04/18 03:49:43;;;;;;;6.53;0.80;;;25.90;99.90;;;;;;5032320;28;20032;-71
2022/04/18 03:52:11;;;;;;;3.53;1.20;;;25.50;99.90;;;;;;5033553;28;20037;-70
2022/04/18 03:54:42;;;;;;;4.47;1.05;;;25.40;99.90;;;;;;5042355;28;20432;-71
2022/04/18 03:57:10;;;;;;;3.75;0.95;;;25.50;99.90;;;;;;5039340;28;20037;-70
2022/04/18 03:59:37;;;;;;;6.22;1.58;;;25.40;99.90;;;;;;5043221;28;20140;-71
2022/04/18 04:02:05;;;;;;;6.78;1.52;;;25.40;99.90;;;;;;5049383;28;20083;-70
2022/04/18 04:04:33;;;;;;;7.95;1.75;;;25.30;99.90;;;;;;5044558;28;20474;-71
2022/04/18 04:07:00;;;;;;;3.00;1.20;;;25.40;99.90;;;;;;5045886;28;20111;-71
2022/04/18 04:09:27;;;;;;;8.45;1.48;;;25.50;99.90;;;;;;5048213;28;20589;-71
2022/04/18 04:11:55;;;;;;;5.32;0.90;;;25.60;99.90;;;;;;5048129;28;20655;-71
2022/04/18 04:14:22;;;;;;;4.70;0.95;;;25.80;99.90;;;;;;5051806;28;20035;-71
2022/04/18 04:16:49;;;;;;;7.47;1.55;;;25.80;99.90;;;;;;5045474;28;20028;-71
2022/04/18 04:19:17;;;;;;;6.50;1.13;;;25.60;99.90;;;;;;5051793;28;20039;-71
2022/04/18 04:21:44;;;;;;;6.55;1.48;;;25.50;99.90;;;;;;5043916;28;20051;-71
2022/04/18 04:24:11;;;;;;;5.53;1.30;;;25.40;99.90;;;;;;5049409;28;20465;-71
2022/04/18 04:26:39;;;;;;;5.63;1.48;;;25.20;99.90;;;;;;5050232;28;20032;-71
2022/04/18 04:29:06;;;;;;;6.85;1.27;;;25.00;99.90;;;;;;5044765;28;20044;-71
2022/04/18 04:31:33;;;;;;;6.30;0.90;;;24.90;99.90;;;;;;5043880;28;20033;-71
2022/04/18 04:34:00;;;;;;;4.78;1.05;;;24.90;99.90;;;;;;5030792;28;20029;-70
2022/04/18 04:36:28;;;;;;;4.22;1.00;;;24.70;99.90;;;;;;5038130;28;20071;-71
2022/04/18 04:38:55;;;;;;;7.22;1.10;;;24.50;99.90;;;;;;5046226;28;20119;-70
2022/04/18 04:41:22;;;;;;;3.85;0.90;;;24.50;99.90;;;;;;5049227;28;20025;-70
2022/04/18 04:43:49;;;;;;;4.82;1.15;;;24.40;99.90;;;;;;5047611;28;20040;-71
2022/04/18 04:46:17;;;;;;;7.53;0.85;;;24.20;99.90;;;;;;5040635;28;20040;-71
2022/04/18 04:48:44;;;;;;;2.92;0.52;;;24.20;99.90;;;;;;5043594;28;20021;-71
2022/04/18 04:51:11;;;;;;;5.63;1.92;;;24.10;99.90;;;;;;5054737;28;20159;-71
2022/04/18 04:53:39;;;;;;;2.78;0.70;;;24.20;99.90;;;;;;5054712;28;20116;-71
2022/04/18 04:56:06;;;;;;;4.05;1.00;;;24.30;99.90;;;;;;5049073;28;20025;-71
2022/04/18 04:58:33;;;;;;;5.35;0.98;;;24.30;99.90;;;;;;5050538;28;20047;-70
2022/04/18 05:01:00;;;;;;;7.63;1.23;;;24.20;99.90;;;;;;5053710;28;20036;-70
2022/04/18 05:03:28;;;;;;;5.18;0.93;;;24.20;99.90;;;;;;5044515;28;20021;-70
2022/04/18 05:05:55;;;;;;;2.75;1.23;;;24.10;99.90;;;;;;5041912;28;20036;-70
2022/04/18 05:08:22;;;;;;;4.15;0.70;;;24.10;99.90;;;;;;5048258;28;20135;-71
2022/04/18 05:10:49;;;;;;;6.68;1.30;;;24.00;99.90;;;;;;5046016;28;20503;-71
2022/04/18 05:13:17;;;;;;;6.22;1.08;;;24.10;99.90;;;;;;5055070;28;20171;-71
2022/04/18 05:15:44;;;;;;;5.85;1.55;;;23.90;99.90;;;;;;5055060;28;20032;-70
2022/04/18 05:18:11;;;;;;;5.63;1.10;;;23.80;99.90;;;;;;5049912;28;20024;-71
2022/04/18 05:20:39;;;;;;;6.47;0.80;;;23.70;99.90;;;;;;5042661;28;20036;-70
2022/04/18 05:23:07;;;;;;;4.75;1.02;;;23.70;99.90;;;;;;5040542;28;20037;-71
2022/04/18 05:25:34;;;;;;;9.63;1.00;;;23.60;99.90;;;;;;5049784;28;20017;-71
2022/04/18 05:28:01;;;;;;;2.63;0.93;;;23.70;99.90;;;;;;5052853;28;20453;-71
2022/04/18 05:30:29;;;;;;;7.32;1.25;;;23.60;99.90;;;;;;5028516;28;20040;-70
2022/04/18 05:32:56;;;;;;;7.68;1.13;;;23.60;99.90;;;;;;5051727;28;20017;-70
2022/04/18 05:35:24;;;;;;;5.38;0.70;;;23.70;99.90;;;;;;5046971;28;22734;-70
2022/04/18 05:37:51;;;;;;;10.13;1.48;;;23.60;99.90;;;;;;5052273;28;20032;-71
2022/04/18 05:40:19;;;;;;;5.03;0.88;;;23.80;99.90;;;;;;5049150;28;20021;-70
2022/04/18 05:42:46;;;;;;;5.38;1.00;;;23.80;99.90;;;;;;5049402;28;20032;-71
2022/04/18 05:45:13;;;;;;;3.08;0.80;;;23.70;99.90;;;;;;5032038;28;20018;-71
2022/04/18 05:47:40;;;;;;;6.85;1.13;;;23.60;99.90;;;;;;5032131;28;20059;-71
2022/04/18 05:50:08;;;;;;;5.75;0.88;;;23.60;99.90;;;;;;5023511;28;20025;-71
2022/04/18 05:52:35;;;;;;;4.18;0.70;;;23.40;99.90;;;;;;5050085;28;20032;-71
2022/04/18 05:55:03;;;;;;;3.38;0.60;;;23.40;99.90;;;;;;5031219;28;20025;-72
2022/04/18 05:57:30;;;;;;;2.58;0.77;;;23.40;99.90;;;;;;5051944;28;20029;-71
2022/04/18 05:59:57;;;;;;;4.22;1.02;;;23.40;99.90;;;;;;5035254;28;20025;-71
2022/04/18 06:02:24;;;;;;;8.10;1.25;;;23.40;99.90;;;;;;5049061;28;20436;-71
2022/04/18 06:04:53;;;;;;;3.70;0.63;;;23.40;99.90;;;;;;5051363;28;20489;-71
2022/04/18 06:07:20;;;;;;;7.13;1.13;;;23.30;99.90;;;;;;5052976;28;20400;-71
2022/04/18 06:09:47;;;;;;;2.75;0.73;;;23.30;99.90;;;;;;5055680;28;20528;-72
2022/04/18 06:12:19;;;;;;;3.00;0.85;;;23.20;99.90;;;;;;5052328;28;20033;-71
2022/04/18 06:14:46;;;;;;;7.15;0.70;;;23.10;99.90;;;;;;5052986;28;20027;-71
2022/04/18 06:17:13;;;;;;;4.20;0.80;;;23.10;99.90;;;;;;5045742;28;20032;-71
2022/04/18 06:19:41;;;;;;;5.43;0.93;;;23.00;99.90;;;;;;5050765;28;20025;-71
2022/04/18 06:22:08;;;;;;;2.35;0.63;;;23.00;99.90;;;;;;5047316;28;20631;-71
2022/04/18 06:24:35;;;;;;;4.05;0.70;;;23.00;99.90;;;;;;5041511;28;20040;-72
2022/04/18 06:27:02;;;;;;;3.53;0.88;;;23.00;99.90;;;;;;5040838;28;20103;-71
2022/04/18 06:29:30;;;;;;;3.40;0.50;;;23.00;99.90;;;;;;5051921;28;20089;-71
2022/04/18 06:31:57;;;;;;;5.55;0.70;;;23.00;99.90;;;;;;5050809;28;20056;-71
2022/04/18 06:34:28;;;;;;;7.30;1.40;;;22.90;99.90;;;;;;5045705;28;20090;-71
2022/04/18 06:36:55;;;;;;;5.15;0.95;;;22.90;99.90;;;;;;5045858;28;20112;-72
2022/04/18 06:39:22;;;;;;;5.57;0.60;;;22.90;99.90;;;;;;5053464;28;20036;-71
2022/04/18 06:41:50;;;;;;;5.63;0.85;;;22.90;99.90;;;;;;5030830;28;20088;-72
2022/04/18 06:44:17;;;;;;;4.97;0.75;;;22.90;99.90;;;;;;5051634;28;20021;-71
2022/04/18 06:46:44;;;;;;;5.07;0.70;;;22.80;99.90;;;;;;5052823;28;20023;-72
2022/04/18 06:49:11;;;;;;;4.95;1.00;;;22.90;99.90;;;;;;5051812;28;20056;-72
2022/04/18 06:51:39;;;;;;;8.30;1.10;;;22.80;99.90;;;;;;5028050;28;20017;-71
2022/04/18 06:54:06;;;;;;;5.50;1.27;;;22.80;99.90;;;;;;5049950;28;20021;-70
2022/04/18 06:59:19;;;;;;;4.38;1.10;;;22.70;99.90;;;;;;5053524;28;20036;-71
2022/04/18 07:01:46;;;;;;;10.07;1.23;;;22.60;99.90;;;;;;5031235;28;20029;-71
2022/04/18 07:04:13;;;;;;;7.45;0.93;;;22.60;99.90;;;;;;5043227;28;20033;-71
2022/04/18 07:06:41;;;;;;;5.57;0.90;;;22.60;99.90;;;;;;5047275;28;20537;-71
2022/04/18 07:09:09;;;;;;;10.50;1.58;;;22.50;99.90;;;;;;5034711;28;20025;-72
2022/04/18 07:11:36;;;;;;;7.15;1.13;;;22.50;99.90;;;;;;5048998;28;20052;-71
2022/04/18 07:14:04;;;;;;;4.05;0.70;;;22.50;99.90;;;;;;5051000;28;20032;-71
2022/04/18 07:16:31;;;;;;;1.95;0.70;;;22.40;99.90;;;;;;5049095;28;20025;-72
2022/04/18 07:18:59;;;;;;;2.80;0.93;;;22.40;99.90;;;;;;5051652;28;20033;-73
2022/04/18 07:21:27;;;;;;;4.72;0.70;;;22.40;99.90;;;;;;5046713;28;20025;-73
2022/04/18 07:23:54;;;;;;;4.72;0.88;;;22.30;99.90;;;;;;5049060;28;20029;-72
2022/04/18 07:26:21;;;;;;;6.32;1.00;;;22.30;99.90;;;;;;5035953;28;20371;-72
2022/04/18 07:28:49;;;;;;;13.93;1.38;;;22.30;99.90;;;;;;5027457;28;20054;-72
2022/04/18 07:31:16;;;;;;;6.55;1.15;;;22.30;99.90;;;;;;5028775;28;20060;-72
2022/04/18 07:33:44;;;;;;;9.05;1.20;;;22.20;99.90;;;;;;5029139;28;20128;-72
2022/04/18 07:36:11;;;;;;;6.88;0.90;;;22.10;99.90;;;;;;5025981;28;20029;-72
2022/04/18 07:38:50;;;;;;;3.90;1.00;;;22.10;99.90;;;;;;5020862;28;20101;-72
2022/04/18 07:41:22;;;;;;;9.02;1.20;;;22.00;99.90;;;;;;5024206;28;20026;-72
2022/04/18 07:43:51;;;;;;;3.15;0.98;;;22.00;99.90;;;;;;5023477;28;20046;-71
2022/04/18 07:46:19;;;;;;;8.43;1.60;;;21.90;99.90;;;;;;5036674;28;20029;-71
2022/04/18 07:48:53;;;;;;;5.15;1.20;;;21.90;99.90;;;;;;5039245;28;20056;-71
2022/04/18 07:51:36;;;;;;;5.85;1.30;;;21.90;99.90;;;;;;5040335;28;20888;-71
2022/04/18 07:54:09;;;;;;;7.45;1.85;;;21.90;99.90;;;;;;5030735;28;20036;-71
2022/04/18 07:56:37;;;;;;;4.18;1.42;;;21.90;99.90;;;;;;5033603;28;20025;-72
2022/04/18 07:59:05;;;;;;;7.30;1.55;;;21.90;99.90;;;;;;5037128;28;20030;-71
2022/04/18 08:01:33;;;;;;;5.93;1.48;;;21.90;99.90;;;;;;5018731;28;20037;-72
2022/04/18 08:04:01;;;;;;;4.25;1.55;;;21.90;99.90;;;;;;5030368;28;20038;-71
2022/04/18 08:06:29;;;;;;;6.30;1.80;;;21.80;99.90;;;;;;5027470;28;20026;-72
2022/04/18 08:08:57;;;;;;;7.22;1.20;;;21.80;99.90;;;;;;5015634;28;20021;-72
2022/04/18 08:11:25;;;;;;;6.78;1.90;;;21.70;99.90;;;;;;5037091;28;20038;-72
2022/04/18 08:13:53;;;;;;;3.47;1.02;;;21.80;99.90;;;;;;5020975;28;20440;-72
2022/04/18 08:16:21;;;;;;;7.38;1.48;;;21.70;99.90;;;;;;5013861;28;20490;-72
2022/04/18 08:18:48;;;;;;;5.80;1.83;;;21.70;99.90;;;;;;5013733;28;20052;-72
2022/04/18 08:21:17;;;;;;;3.97;1.20;;;21.60;99.90;;;;;;5014064;28;20060;-72
2022/04/18 08:23:45;;;;;;;4.68;1.00;;;21.60;99.90;;;;;;5018934;28;20103;-72
2022/04/18 08:26:13;;;;;;;6.97;1.65;;;21.60;99.90;;;;;;5037069;28;20018;-72
2022/04/18 08:28:41;;;;;;;9.25;1.40;;;21.50;99.90;;;;;;5029225;28;20046;-72
2022/04/18 08:31:09;;;;;;;8.73;2.45;;;21.50;99.90;;;;;;5032020;28;20441;-73
2022/04/18 08:33:37;;;;;;;4.20;1.27;;;21.50;99.90;;;;;;5028683;28;20087;-72
2022/04/18 08:36:05;;;;;;;8.10;2.13;;;21.50;99.90;;;;;;5026476;28;20029;-73
2022/04/18 08:38:32;;;;;;;7.80;2.03;;;21.50;99.90;;;;;;5028389;28;20032;-73
2022/04/18 08:41:09;;;;;;;7.03;1.98;;;21.50;99.90;;;;;;5037139;28;20390;-73
2022/04/18 08:43:37;;;;;;;5.32;1.80;;;21.50;99.90;;;;;;5033917;28;20029;-72
2022/04/18 08:46:08;;;;;;;4.47;1.83;;;21.50;99.90;;;;;;5034257;28;20041;-72
2022/04/18 08:54:08;;;;;;;5.65;2.70;;;21.40;99.90;;;;;;5028903;28;20063;-73
2022/04/18 08:56:36;;;;;;;5.75;2.28;;;21.50;99.90;;;;;;5036369;28;20049;-73
2022/04/18 08:59:03;;;;;;;10.10;2.92;;;21.40;99.90;;;;;;5029957;28;20121;-73
2022/04/18 09:01:30;;;;;;;11.48;3.33;;;21.40;99.90;;;;;;5035127;28;20025;-73
2022/04/18 09:03:59;;;;;;;6.93;2.78;;;21.40;99.90;;;;;;5031703;28;20044;-73
2022/04/18 09:06:27;;;;;;;8.43;3.50;;;21.30;99.90;;;;;;5041263;28;20025;-73
2022/04/18 09:08:58;;;;;;;5.97;3.25;;;21.30;99.90;;;;;;5038529;28;20029;-72
2022/04/18 09:11:33;;;;;;;6.25;3.47;;;21.20;99.90;;;;;;5033066;28;20037;-72
2022/04/18 09:14:09;;;;;;;9.90;3.33;;;21.20;99.90;;;;;;5030565;28;20029;-72
2022/04/18 09:16:38;;;;;;;6.80;2.60;;;21.10;99.90;;;;;;5018162;28;20041;-72
2022/04/18 09:19:16;;;;;;;8.52;2.58;;;21.10;99.90;;;;;;5020107;28;20037;-73
2022/04/18 09:22:01;;;;;;;6.13;2.28;;;21.10;99.90;;;;;;5038179;28;20076;-73
2022/04/18 09:24:34;;;;;;;5.63;1.65;;;21.10;99.90;;;;;;5032080;28;20026;-73
2022/04/18 09:27:25;;;;;;;4.43;1.73;;;21.10;99.90;;;;;;5032543;28;20026;-72
2022/04/18 09:30:10;;;;;;;5.47;1.75;;;21.10;99.90;;;;;;5056315;28;20039;-73
2022/04/18 09:32:41;;;;;;;8.73;1.70;;;21.00;99.90;;;;;;5046678;28;20025;-72
2022/04/18 09:35:09;;;;;;;4.45;1.30;;;21.00;99.90;;;;;;5034621;28;20112;-72
2022/04/18 09:37:37;;;;;;;7.90;1.67;;;21.00;99.90;;;;;;5057602;28;20028;-73
2022/04/18 09:40:05;;;;;;;5.18;1.58;;;20.90;99.90;;;;;;5030839;28;20044;-72
2022/04/18 09:42:32;;;;;;;3.38;1.35;;;20.90;99.90;;;;;;5043566;28;20037;-73
2022/04/18 09:44:59;;;;;;;5.43;1.63;;;20.90;99.90;;;;;;5052142;28;20104;-73
2022/04/18 09:47:37;;;;;;;9.23;2.20;;;20.90;99.90;;;;;;5049923;28;20083;-72
2022/04/18 09:53:08;;;;;;;5.90;2.20;;;20.80;99.90;;;;;;5054256;28;20040;-73
2022/04/18 09:55:36;;;;;;;5.00;1.67;;;20.80;99.90;;;;;;5054324;28;20075;-73
2022/04/18 09:58:04;;;;;;;8.18;1.15;;;20.80;99.90;;;;;;5034868;28;20036;-73
2022/04/18 10:00:31;;;;;;;6.03;1.52;;;20.80;99.90;;;;;;5055569;28;20086;-72
2022/04/18 10:03:00;;;;;;;11.25;2.05;;;20.70;99.90;;;;;;5054983;28;20480;-73
2022/04/18 10:05:28;;;;;;;4.53;1.35;;;20.70;99.90;;;;;;5033026;28;20029;-73
2022/04/18 10:07:56;;;;;;;6.70;1.05;;;20.70;99.90;;;;;;5052252;28;20444;-73
2022/04/18 10:10:25;;;;;;;5.43;1.10;;;20.70;99.90;;;;;;5051556;28;20713;-73
2022/04/18 10:12:52;;;;;;;6.00;1.33;;;20.70;99.90;;;;;;5036421;28;20655;-72
2022/04/18 10:15:19;;;;;;;5.43;1.38;;;20.70;99.90;;;;;;5048008;28;20111;-72
2022/04/18 10:17:47;;;;;;;3.30;1.08;;;20.60;99.90;;;;;;5067155;28;20397;-72
2022/04/18 10:20:55;;;;;;;8.52;2.00;;;20.60;99.90;;;;;;5054991;28;20029;-72
2022/04/18 10:23:53;;;;;;;4.85;1.38;;;20.60;99.90;;;;;;5036484;28;20505;-73
2022/04/18 10:26:42;;;;;;;4.53;1.17;;;20.50;99.90;;;;;;5054417;28;20027;-73
2022/04/18 10:29:18;;;;;;;3.35;1.40;;;20.50;99.90;;;;;;5040669;28;20069;-73
2022/04/18 10:31:47;;;;;;;6.53;1.75;;;20.50;99.90;;;;;;5038236;28;20100;-73
2022/04/18 10:34:14;;;;;;;8.77;1.13;;;20.40;99.90;;;;;;5053091;28;20021;-72
2022/04/18 10:36:51;;;;;;;1.92;0.85;;;20.40;99.90;;;;;;5054638;28;20025;-72
2022/04/18 10:39:19;;;;;;;8.63;1.90;;;20.40;99.90;;;;;;5052032;28;20037;-71
2022/04/18 10:41:48;;;;;;;4.05;0.90;;;20.40;99.90;;;;;;5054738;28;20025;-71
2022/04/18 10:44:17;;;;;;;4.80;0.98;;;20.40;99.90;;;;;;5052405;28;20083;-71
2022/04/18 10:47:05;;;;;;;3.70;1.33;;;20.40;99.90;;;;;;5042603;28;20512;-71
2022/04/18 10:49:32;;;;;;;8.38;1.52;;;20.30;99.90;;;;;;5039827;28;20033;-71
2022/04/18 10:52:09;;;;;;;5.30;0.80;;;20.30;99.90;;;;;;5035049;28;20052;-71
2022/04/18 10:54:37;;;;;;;8.93;1.40;;;20.30;99.90;;;;;;5036593;28;20512;-71
2022/04/18 10:57:14;;;;;;;5.13;1.95;;;20.30;99.90;;;;;;5054710;28;20104;-71
2022/04/18 10:59:45;;;;;;;3.38;1.08;;;20.30;99.90;;;;;;5050222;28;20099;-71
2022/04/18 11:02:39;;;;;;;7.65;1.33;;;20.20;99.90;;;;;;5048078;28;20028;-71
2022/04/18 11:05:07;;;;;;;2.88;1.17;;;20.30;99.90;;;;;;5023005;28;20047;-71
2022/04/18 11:07:43;;;;;;;3.53;0.90;;;20.20;99.90;;;;;;5047019;28;20060;-70
2022/04/18 11:10:22;;;;;;;4.88;0.75;;;20.20;99.90;;;;;;5046481;28;20485;-70
2022/04/18 11:12:57;;;;;;;5.13;0.93;;;20.20;99.90;;;;;;5049209;28;20017;-70
2022/04/18 11:15:24;;;;;;;4.60;0.80;;;20.20;99.90;;;;;;5045659;28;20366;-70
2022/04/18 11:17:51;;;;;;;5.10;1.10;;;20.20;99.90;;;;;;5050832;28;20107;-69
2022/04/18 11:20:25;;;;;;;5.65;1.00;;;20.20;99.90;;;;;;5034134;28;20060;-70
2022/04/18 11:23:10;;;;;;;;;;;20.20;99.90;;;;;;5047880;28;20083;-70
2022/04/18 11:26:00;;;;;;;14.55;1.35;;;20.20;99.90;;;;;;5042458;28;19905;-71
2022/04/18 11:28:35;;;;;;;5.30;1.17;;;20.20;99.90;;;;;;5040010;28;20042;-70
2022/04/18 11:31:09;;;;;;;9.05;1.38;;;20.20;99.90;;;;;;5048597;28;20024;-70
2022/04/18 11:33:44;;;;;;;;;;;20.20;99.90;;;;;;5050043;28;20396;-70
2022/04/18 11:36:11;;;;;;;;;;;20.20;99.90;;;;;;5051344;28;19915;-70
2022/04/18 11:38:39;;;;;;;7.20;1.13;;;20.20;99.90;;;;;;5054128;28;20001;-70
2022/04/18 11:41:15;;;;;;;2.38;0.63;;;20.20;99.90;;;;;;5054470;28;20021;-70
2022/04/18 11:43:43;;;;;;;3.22;0.65;;;20.20;99.90;;;;;;5049709;28;20041;-70
2022/04/18 11:46:10;;;;;;;6.03;1.15;;;20.20;99.90;;;;;;5054942;28;20024;-70
2022/04/18 11:48:39;;;;;;;2.83;0.65;;;20.20;99.90;;;;;;5049594;28;20028;-70
2022/04/18 11:51:06;;;;;;;6.63;0.90;;;20.20;99.90;;;;;;5047871;28;20083;-70
2022/04/18 11:53:35;;;;;;;5.28;0.70;;;20.20;99.90;;;;;;5049137;28;20098;-70
2022/04/18 11:56:07;;;;;;;4.40;0.88;;;20.10;99.90;;;;;;5042087;28;20512;-70
2022/04/18 11:58:41;;;;;;;5.95;0.63;;;20.10;99.90;;;;;;5043812;28;20021;-70
2022/04/18 12:06:47;;;;;;;4.55;0.80;;;20.20;99.90;;;;;;5047305;28;20421;-70
2022/04/18 12:09:23;;;;;;;3.42;0.65;;;20.10;99.90;;;;;;5046194;28;20105;-70
2022/04/18 12:11:52;;;;;;;5.45;1.17;;;20.10;99.90;;;;;;5049856;28;20036;-70
2022/04/18 12:14:20;;;;;;;2.05;0.65;;;20.10;99.90;;;;;;5024936;28;20036;-70
2022/04/18 12:16:47;;;;;;;2.35;0.77;;;20.00;99.90;;;;;;5041955;28;20033;-71
2022/04/18 12:19:16;;;;;;;5.20;1.15;;;20.00;99.90;;;;;;5038709;28;20104;-71
2022/04/18 12:21:44;;;;;;;3.78;0.75;;;20.00;99.90;;;;;;5052091;28;20063;-70
2022/04/18 12:24:11;;;;;;;5.00;0.80;;;20.00;99.90;;;;;;5051451;28;20033;-70
2022/04/18 12:30:04;;;;;;;2.00;0.52;;;19.90;99.90;;;;;;4973230;28;20120;-72
2022/04/18 12:32:38;;;;;;;2.97;0.57;;;19.80;99.90;;;;;;5039292;28;20527;-71
2022/04/18 12:35:05;;;;;;;;;;;19.80;99.90;;;;;;5049121;28;20017;-70
2022/04/18 12:37:33;;;;;;;3.50;0.80;;;19.80;99.90;;;;;;5048823;28;19912;-70
2022/04/18 12:40:20;;;;;;;5.32;0.85;;;19.80;99.90;;;;;;5047801;28;20021;-71
2022/04/18 12:42:54;;;;;;;2.67;0.70;;;19.80;99.90;;;;;;5050417;28;20128;-70
2022/04/18 12:45:21;;;;;;;3.40;0.70;;;19.80;99.90;;;;;;5049011;28;20497;-70
2022/04/18 12:47:49;;;;;;;5.57;0.70;;;19.80;99.90;;;;;;5041871;28;20032;-70
2022/04/18 12:50:16;;;;;;;2.60;0.73;;;19.70;99.90;;;;;;5042499;28;20028;-71
2022/04/18 12:52:52;;;;;;;5.65;0.80;;;19.70;99.90;;;;;;5042646;28;20096;-70
2022/04/18 12:55:29;;;;;;;2.08;0.60;;;19.70;99.90;;;;;;5049295;28;20067;-71
2022/04/18 12:57:59;;;;;;;3.33;0.60;;;19.70;99.90;;;;;;5049968;28;20036;-71
2022/04/18 13:00:35;;;;;;;7.63;1.38;;;19.70;99.90;;;;;;5048300;28;20025;-70
2022/04/18 13:03:07;;;;;;;2.90;0.70;;;19.70;99.90;;;;;;5049132;28;20421;-71
2022/04/18 13:05:42;;;;;;;4.25;0.70;;;19.70;99.90;;;;;;5057593;28;20098;-71
2022/04/18 13:08:11;;;;;;;4.28;0.50;;;19.70;99.90;;;;;;5045140;28;20024;-71
2022/04/18 13:10:39;;;;;;;5.30;0.70;;;19.70;99.90;;;;;;5050118;28;20033;-70
2022/04/18 13:13:13;;;;;;;5.75;0.85;;;19.70;99.90;;;;;;5044538;28;20375;-70
2022/04/18 13:15:42;;;;;;;3.55;0.45;;;19.80;99.90;;;;;;5045860;28;20029;-70
2022/04/18 13:18:19;;;;;;;3.05;0.70;;;19.80;99.90;;;;;;5055859;28;20025;-70
2022/04/18 13:20:47;;;;;;;4.20;0.60;;;19.80;99.90;;;;;;5054541;28;20025;-70
2022/04/18 13:23:15;;;;;;;2.35;0.60;;;19.90;99.90;;;;;;5052939;28;20366;-71
2022/04/18 13:25:42;;;;;;;4.25;0.95;;;19.80;99.90;;;;;;5054858;28;20108;-70